Time;durP1;ratioP1;P1;durP2;ratioP2;P2;SDS_P1;SDS_P2;PMS_P1;PMS_P2;Temp;Humidity;BMP_temperature;BMP_pressure;BME280_temperature;BME280_humidity;BME280_pressure;Samples;Min_cycle;Max_cycle;Signal;HPM_P1;HPM_P2
2023/09/01 00:00:12;;;;;;;7.30;2.63;;;12.80;99.90;;;;;;4905495;29;20104;-82
2023/09/01 00:02:41;;;;;;;3.03;2.22;;;12.80;99.90;;;;;;4895039;29;20505;-83
2023/09/01 00:05:10;;;;;;;4.72;2.63;;;12.70;99.90;;;;;;4893264;29;20033;-83
2023/09/01 00:07:36;;;;;;;5.72;2.38;;;12.70;99.90;;;;;;4916724;29;20070;-80
2023/09/01 00:10:03;;;;;;;4.85;2.47;;;12.70;99.90;;;;;;4909328;29;20045;-81
2023/09/01 00:12:29;;;;;;;6.40;2.70;;;12.70;99.90;;;;;;4907512;29;20040;-80
2023/09/01 00:14:55;;;;;;;5.38;2.65;;;12.70;99.90;;;;;;4907370;29;20102;-81
2023/09/01 00:17:25;;;;;;;11.75;2.83;;;12.70;99.90;;;;;;4905006;29;20059;-79
2023/09/01 00:19:51;;;;;;;4.35;2.90;;;12.70;99.90;;;;;;4898072;29;20442;-80
2023/09/01 00:22:17;;;;;;;8.07;3.42;;;12.70;99.90;;;;;;4904488;29;20035;-82
2023/09/01 00:24:42;;;;;;;4.72;2.42;;;12.70;99.90;;;;;;4910664;29;20033;-83
2023/09/01 00:27:08;;;;;;;4.05;2.65;;;12.70;99.90;;;;;;4902661;29;20033;-83
2023/09/01 00:29:34;;;;;;;5.78;2.50;;;12.70;99.90;;;;;;4897832;29;20131;-83
2023/09/01 00:32:01;;;;;;;6.85;3.15;;;12.70;99.90;;;;;;4910445;29;20125;-83
2023/09/01 00:34:30;;;;;;;6.28;3.05;;;12.70;99.90;;;;;;4890014;29;20048;-82
2023/09/01 00:36:56;;;;;;;4.35;2.60;;;12.70;99.90;;;;;;4896592;29;20144;-81
2023/09/01 00:39:22;;;;;;;5.20;2.50;;;12.70;99.90;;;;;;4883656;29;20033;-80
2023/09/01 00:41:48;;;;;;;7.22;3.22;;;12.80;99.90;;;;;;4907747;29;20088;-80
2023/09/01 00:44:14;;;;;;;8.63;2.58;;;12.80;99.90;;;;;;4904120;29;20072;-80
2023/09/01 00:46:46;;;;;;;5.55;2.45;;;12.80;99.90;;;;;;4889389;29;20033;-81
2023/09/01 00:49:13;;;;;;;7.25;2.90;;;12.80;99.90;;;;;;4897189;29;20097;-81
2023/09/01 00:51:39;;;;;;;6.35;3.10;;;12.80;99.90;;;;;;4881990;29;20040;-82
2023/09/01 00:54:05;;;;;;;4.28;2.55;;;12.80;99.90;;;;;;4900425;29;20045;-81
2023/09/01 00:56:31;;;;;;;6.28;3.30;;;12.80;99.90;;;;;;4887399;29;20037;-81
2023/09/01 00:58:57;;;;;;;6.40;2.78;;;12.80;99.90;;;;;;4886681;29;20032;-83
2023/09/01 01:01:23;;;;;;;3.35;2.42;;;12.80;99.90;;;;;;4892569;29;20048;-80
2023/09/01 01:03:52;;;;;;;5.10;2.83;;;12.80;99.90;;;;;;4911792;29;20036;-81
2023/09/01 01:06:20;;;;;;;11.80;3.10;;;12.80;99.90;;;;;;4890930;29;20069;-82
2023/09/01 01:09:11;;;;;;;3.75;2.40;;;12.80;99.90;;;;;;4910993;29;20044;-81
2023/09/01 01:12:16;;;;;;;8.75;2.63;;;12.80;99.90;;;;;;4877643;29;20037;-80
2023/09/01 01:14:49;;;;;;;5.03;2.47;;;12.80;99.90;;;;;;4888113;29;20176;-80
2023/09/01 01:17:21;;;;;;;5.72;2.60;;;12.80;99.90;;;;;;4897913;29;20040;-80
2023/09/01 01:20:17;;;;;;;4.70;2.97;;;12.80;99.90;;;;;;4892146;29;20447;-80
2023/09/01 01:22:51;;;;;;;6.57;2.97;;;12.80;99.90;;;;;;4894418;29;20088;-79
2023/09/01 01:25:20;;;;;;;4.82;2.53;;;12.80;99.90;;;;;;4891867;29;20145;-82
2023/09/01 01:27:46;;;;;;;4.55;2.40;;;12.80;99.90;;;;;;4904566;29;20060;-82
2023/09/01 01:30:15;;;;;;;5.20;2.72;;;12.80;99.90;;;;;;4894311;29;20028;-81
2023/09/01 01:32:43;;;;;;;5.05;2.80;;;12.80;99.90;;;;;;4900113;29;20049;-83
2023/09/01 01:35:14;;;;;;;8.60;3.03;;;12.80;99.90;;;;;;4910075;29;20052;-80
2023/09/01 01:37:54;;;;;;;5.85;3.00;;;12.70;99.90;;;;;;4900254;29;20033;-81
2023/09/01 01:40:23;;;;;;;3.50;3.00;;;12.80;99.90;;;;;;4912044;29;20573;-82
2023/09/01 01:42:51;;;;;;;3.90;2.63;;;12.70;99.90;;;;;;4897991;29;20374;-82
2023/09/01 01:45:21;;;;;;;5.85;2.90;;;12.70;99.90;;;;;;4901549;29;20044;-83
2023/09/01 01:47:49;;;;;;;5.88;2.70;;;12.80;99.90;;;;;;4910267;29;20127;-82
2023/09/01 01:50:15;;;;;;;5.55;2.70;;;12.70;99.90;;;;;;4897218;29;20043;-81
2023/09/01 01:52:40;;;;;;;6.57;2.88;;;12.70;99.90;;;;;;4901622;29;20052;-81
2023/09/01 01:55:07;;;;;;;5.03;2.97;;;12.70;99.90;;;;;;4887242;29;20048;-81
2023/09/01 01:57:36;;;;;;;6.60;2.95;;;12.70;99.90;;;;;;4902444;29;20555;-82
2023/09/01 02:00:04;;;;;;;8.40;3.67;;;12.70;99.90;;;;;;4907300;29;20092;-83
2023/09/01 02:02:38;;;;;;;5.40;2.95;;;12.70;99.90;;;;;;4899782;29;20037;-83
2023/09/01 02:05:06;;;;;;;6.65;3.00;;;12.70;99.90;;;;;;4904457;29;20056;-82
2023/09/01 02:07:33;;;;;;;7.40;3.13;;;12.70;99.90;;;;;;4892276;29;20040;-84
2023/09/01 02:09:59;;;;;;;6.20;2.65;;;12.70;99.90;;;;;;4892590;29;20497;-80
2023/09/01 02:12:25;;;;;;;2.97;2.42;;;12.70;99.90;;;;;;4897680;29;20107;-81
2023/09/01 02:14:51;;;;;;;4.13;2.25;;;12.70;99.90;;;;;;4900871;29;20242;-82
2023/09/01 02:17:17;;;;;;;3.55;2.55;;;12.70;99.90;;;;;;4895828;29;20041;-82
2023/09/01 02:19:43;;;;;;;6.82;2.90;;;12.70;99.90;;;;;;4890045;29;20037;-81
2023/09/01 02:22:08;;;;;;;4.07;2.70;;;12.70;99.90;;;;;;4900077;29;20029;-83
2023/09/01 02:24:34;;;;;;;7.35;3.05;;;12.70;99.90;;;;;;4894394;29;20057;-81
2023/09/01 02:27:00;;;;;;;5.57;3.40;;;12.70;99.90;;;;;;4899472;29;20383;-81
2023/09/01 02:29:26;;;;;;;4.30;2.47;;;12.60;99.90;;;;;;4899429;29;20044;-83
2023/09/01 02:31:53;;;;;;;4.55;2.67;;;12.60;99.90;;;;;;4898158;29;20071;-81
2023/09/01 02:34:19;;;;;;;4.60;3.00;;;12.60;99.90;;;;;;4891514;29;20127;-83
2023/09/01 02:36:45;;;;;;;11.95;3.50;;;12.60;99.90;;;;;;4893387;29;20028;-82
2023/09/01 02:39:11;;;;;;;3.33;2.80;;;12.60;99.90;;;;;;4903730;29;20037;-82
2023/09/01 02:41:37;;;;;;;5.32;3.40;;;12.60;99.90;;;;;;4895620;29;20033;-84
2023/09/01 02:44:03;;;;;;;3.28;2.85;;;12.70;99.90;;;;;;4896520;29;20033;-82
2023/09/01 02:46:30;;;;;;;5.22;2.47;;;12.70;99.90;;;;;;4914130;29;20060;-83
2023/09/01 02:48:59;;;;;;;5.28;3.50;;;12.60;99.90;;;;;;4896757;29;20064;-77
2023/09/01 02:51:25;;;;;;;3.92;2.70;;;12.60;99.90;;;;;;4906966;29;20035;-84
2023/09/01 02:53:51;;;;;;;4.65;3.30;;;12.70;99.90;;;;;;4890506;29;20037;-82
2023/09/01 02:56:18;;;;;;;4.60;2.90;;;12.70;99.90;;;;;;4905026;29;20053;-81
2023/09/01 02:58:45;;;;;;;7.03;3.42;;;12.60;99.90;;;;;;4902824;29;20036;-83
2023/09/01 03:01:12;;;;;;;3.25;2.63;;;12.70;99.90;;;;;;4906014;29;20037;-80
2023/09/01 03:03:40;;;;;;;4.13;3.30;;;12.70;99.90;;;;;;4913829;29;20558;-79
2023/09/01 03:06:08;;;;;;;9.20;3.85;;;12.60;99.90;;;;;;4911158;29;20035;-81
2023/09/01 03:08:35;;;;;;;3.75;3.20;;;12.60;99.90;;;;;;4894458;29;20033;-83
2023/09/01 03:11:01;;;;;;;5.75;3.97;;;12.60;99.90;;;;;;4904909;29;20624;-81
2023/09/01 03:13:27;;;;;;;5.05;4.35;;;12.60;99.90;;;;;;4885904;29;20040;-81
2023/09/01 03:15:57;;;;;;;6.70;4.50;;;12.60;99.90;;;;;;4911601;29;20036;-82
2023/09/01 03:18:23;;;;;;;4.53;4.10;;;12.60;99.90;;;;;;4904334;29;20040;-83
2023/09/01 03:20:53;;;;;;;8.02;4.35;;;12.50;99.90;;;;;;4913421;29;20037;-80
2023/09/01 03:23:20;;;;;;;6.40;4.78;;;12.50;99.90;;;;;;4908172;29;20036;-82
2023/09/01 03:25:53;;;;;;;5.90;4.70;;;12.40;99.90;;;;;;4895310;29;20067;-83
2023/09/01 03:28:19;;;;;;;10.15;5.15;;;12.40;99.90;;;;;;4896816;29;20056;-83
2023/09/01 03:30:45;;;;;;;7.78;5.10;;;12.30;99.90;;;;;;4908775;29;20080;-80
2023/09/01 03:33:11;;;;;;;6.35;5.10;;;12.30;99.90;;;;;;4911546;29;20048;-81
2023/09/01 03:35:37;;;;;;;8.68;4.70;;;12.30;99.90;;;;;;4893439;29;20104;-82
2023/09/01 03:38:03;;;;;;;6.85;4.82;;;12.30;99.90;;;;;;4887934;29;20056;-80
2023/09/01 03:40:29;;;;;;;6.43;4.38;;;12.30;99.90;;;;;;4895402;29;20742;-82
2023/09/01 03:42:54;;;;;;;7.25;4.32;;;12.30;99.90;;;;;;4899283;29;20498;-83
2023/09/01 03:45:21;;;;;;;6.38;4.55;;;12.40;99.90;;;;;;4900873;29;20032;-80
2023/09/01 03:47:47;;;;;;;4.30;3.90;;;12.30;99.90;;;;;;4883774;29;20063;-82
2023/09/01 03:50:13;;;;;;;4.32;3.78;;;12.40;99.90;;;;;;4908849;29;20047;-83
2023/09/01 03:52:39;;;;;;;5.60;3.63;;;12.40;99.90;;;;;;4907120;29;20436;-81
2023/09/01 03:55:06;;;;;;;5.63;3.97;;;12.50;99.90;;;;;;4892441;29;20068;-79
2023/09/01 03:57:32;;;;;;;6.35;3.97;;;12.50;99.90;;;;;;4903349;29;20109;-82
2023/09/01 03:59:58;;;;;;;6.13;4.25;;;12.50;99.90;;;;;;4895763;29;20037;-82
2023/09/01 04:02:23;;;;;;;5.28;4.25;;;12.50;99.90;;;;;;4891122;29;20047;-81
2023/09/01 04:04:49;;;;;;;6.55;3.85;;;12.50;99.90;;;;;;4899802;29;20037;-81
2023/09/01 04:07:15;;;;;;;4.70;3.75;;;12.50;99.90;;;;;;4901957;29;20040;-81
2023/09/01 04:09:41;;;;;;;5.60;3.92;;;12.40;99.90;;;;;;4893227;29;20036;-82
2023/09/01 04:12:07;;;;;;;8.30;4.22;;;12.40;99.90;;;;;;4896556;29;20200;-80
2023/09/01 04:14:32;;;;;;;4.82;3.80;;;12.40;99.90;;;;;;4893327;29;20439;-80
2023/09/01 04:16:58;;;;;;;6.03;3.90;;;12.40;99.90;;;;;;4912873;29;20040;-83
2023/09/01 04:19:24;;;;;;;7.22;3.60;;;12.50;99.90;;;;;;4892381;29;20424;-80
2023/09/01 04:21:51;;;;;;;6.53;3.67;;;12.50;99.90;;;;;;4900804;29;20029;-82
2023/09/01 04:24:18;;;;;;;4.95;3.45;;;12.50;99.90;;;;;;4887732;29;20048;-83
2023/09/01 04:26:44;;;;;;;6.25;3.65;;;12.50;99.90;;;;;;4909659;29;20048;-81
2023/09/01 04:29:10;;;;;;;6.10;3.85;;;12.50;99.90;;;;;;4891608;29;20049;-81
2023/09/01 04:31:36;;;;;;;9.30;4.28;;;12.50;99.90;;;;;;4906514;29;20127;-80
2023/09/01 04:34:03;;;;;;;5.38;4.30;;;12.60;99.90;;;;;;4897493;29;20047;-81
2023/09/01 04:36:31;;;;;;;7.70;4.30;;;12.50;99.90;;;;;;4910018;29;20048;-81
2023/09/01 04:38:58;;;;;;;8.55;4.80;;;12.50;99.90;;;;;;4900055;29;20036;-81
2023/09/01 04:41:24;;;;;;;5.10;4.38;;;12.50;99.90;;;;;;4902611;29;20037;-82
2023/09/01 04:43:49;;;;;;;8.02;4.70;;;12.50;99.90;;;;;;4891544;29;20032;-81
2023/09/01 04:46:15;;;;;;;7.63;5.05;;;12.50;99.90;;;;;;4892595;29;20120;-81
2023/09/01 04:48:42;;;;;;;7.65;5.85;;;12.60;99.90;;;;;;4897235;29;20525;-81
2023/09/01 04:51:07;;;;;;;8.77;5.65;;;12.50;99.90;;;;;;4912312;29;20036;-83
2023/09/01 04:53:34;;;;;;;9.43;5.30;;;12.50;99.90;;;;;;4901731;29;20045;-83
2023/09/01 04:56:00;;;;;;;8.75;5.63;;;12.50;99.90;;;;;;4891995;29;20040;-82
2023/09/01 04:58:25;;;;;;;8.70;6.55;;;12.60;99.90;;;;;;4876465;29;20060;-83
2023/09/01 05:00:53;;;;;;;7.72;5.32;;;12.50;99.90;;;;;;4913703;29;20112;-82
2023/09/01 05:03:19;;;;;;;8.15;5.97;;;12.50;99.90;;;;;;4887772;29;20056;-82
2023/09/01 05:05:49;;;;;;;8.20;5.80;;;12.50;99.90;;;;;;4901756;29;20330;-82
2023/09/01 05:08:17;;;;;;;9.18;5.55;;;12.50;99.90;;;;;;4896980;29;20037;-85
2023/09/01 05:10:43;;;;;;;9.95;6.07;;;12.60;99.90;;;;;;4909901;29;20111;-84
2023/09/01 05:13:09;;;;;;;7.70;5.28;;;12.60;99.90;;;;;;4900948;29;20024;-84
2023/09/01 05:15:35;;;;;;;7.85;5.78;;;12.60;99.90;;;;;;4916563;29;20033;-83
2023/09/01 05:18:02;;;;;;;9.52;6.03;;;12.60;99.90;;;;;;4895586;29;20044;-84
2023/09/01 05:20:48;;;;;;;9.32;6.10;;;12.60;99.90;;;;;;4898388;29;20059;-82
2023/09/01 05:23:14;;;;;;;7.38;5.60;;;12.50;99.90;;;;;;4910288;29;20425;-82
2023/09/01 05:25:40;;;;;;;10.05;5.97;;;12.50;99.90;;;;;;4902847;29;20044;-82
2023/09/01 05:28:06;;;;;;;8.20;6.07;;;12.50;99.90;;;;;;4908624;29;20116;-83
2023/09/01 05:30:32;;;;;;;7.22;6.03;;;12.60;99.90;;;;;;4905432;29;20040;-82
2023/09/01 05:32:57;;;;;;;7.85;6.55;;;12.60;99.90;;;;;;4900323;29;20043;-82
2023/09/01 05:35:23;;;;;;;8.48;6.40;;;12.60;99.90;;;;;;4901208;29;20517;-82
2023/09/01 05:37:50;;;;;;;8.68;6.57;;;12.50;99.90;;;;;;4897857;29;20071;-83
2023/09/01 05:40:17;;;;;;;8.35;5.90;;;12.60;99.90;;;;;;4904996;29;20025;-82
2023/09/01 05:42:43;;;;;;;7.75;5.22;;;12.60;99.90;;;;;;4888995;29;20062;-82
2023/09/01 05:45:09;;;;;;;9.00;6.03;;;12.60;99.90;;;;;;4872976;29;20518;-83
2023/09/01 05:47:36;;;;;;;7.43;5.65;;;12.60;99.90;;;;;;4907493;29;20044;-82
2023/09/01 05:50:04;;;;;;;6.72;5.65;;;12.60;99.90;;;;;;4901236;29;20045;-82
2023/09/01 05:52:31;;;;;;;8.32;5.95;;;12.60;99.90;;;;;;4915574;29;20481;-83
2023/09/01 05:54:56;;;;;;;7.75;5.50;;;12.60;99.90;;;;;;4903042;29;20037;-81
2023/09/01 05:57:22;;;;;;;8.93;5.60;;;12.60;99.90;;;;;;4880689;29;20033;-81
2023/09/01 05:59:48;;;;;;;8.07;5.57;;;12.70;99.90;;;;;;4889798;29;20043;-82
2023/09/01 06:02:14;;;;;;;7.82;5.55;;;12.70;99.90;;;;;;4892263;29;20033;-82
2023/09/01 06:04:40;;;;;;;9.18;6.10;;;12.80;99.90;;;;;;4913017;29;20175;-83
2023/09/01 06:07:08;;;;;;;9.07;5.78;;;12.80;99.90;;;;;;4892245;29;20105;-81
2023/09/01 06:09:34;;;;;;;8.55;6.55;;;12.80;99.90;;;;;;4885326;29;20049;-83
2023/09/01 06:12:02;;;;;;;8.80;6.50;;;12.70;99.90;;;;;;4908420;29;20451;-80
2023/09/01 06:14:27;;;;;;;8.32;6.47;;;12.80;99.90;;;;;;4894588;29;20112;-81
2023/09/01 06:16:53;;;;;;;10.20;6.90;;;12.70;99.90;;;;;;4898889;29;20498;-82
2023/09/01 06:19:19;;;;;;;7.30;6.05;;;12.70;99.90;;;;;;4891295;29;20037;-82
2023/09/01 06:21:45;;;;;;;9.55;6.88;;;12.70;99.90;;;;;;4896986;29;20123;-81
2023/09/01 06:24:10;;;;;;;11.27;6.63;;;12.70;99.90;;;;;;4898264;29;20418;-82
2023/09/01 06:26:36;;;;;;;10.50;7.03;;;12.70;99.90;;;;;;4899410;29;20568;-81
2023/09/01 06:29:03;;;;;;;12.48;6.93;;;12.70;99.90;;;;;;4892392;29;20036;-82
2023/09/01 06:31:29;;;;;;;9.27;6.93;;;12.70;99.90;;;;;;4896074;29;20498;-81
2023/09/01 06:33:54;;;;;;;8.65;6.63;;;12.70;99.90;;;;;;4908916;29;20044;-81
2023/09/01 06:36:20;;;;;;;10.35;6.65;;;12.70;99.90;;;;;;4889773;29;20041;-82
2023/09/01 06:38:47;;;;;;;10.73;6.55;;;12.70;99.90;;;;;;4881989;29;20040;-78
2023/09/01 06:41:33;;;;;;;9.13;6.72;;;12.70;99.90;;;;;;4899052;29;20383;-81
2023/09/01 06:44:00;;;;;;;;;;;12.70;99.90;;;;;;4881530;29;20060;-81
2023/09/01 06:46:26;;;;;;;6.32;5.70;;;12.80;99.90;;;;;;4898800;29;19967;-81
2023/09/01 06:48:51;;;;;;;8.23;5.78;;;12.90;99.90;;;;;;4890203;29;20086;-79
2023/09/01 06:51:17;;;;;;;9.38;6.20;;;12.80;99.90;;;;;;4894764;29;20052;-82
2023/09/01 06:53:43;;;;;;;9.20;5.70;;;12.90;99.90;;;;;;4913528;29;20104;-83
2023/09/01 06:56:09;;;;;;;8.63;5.72;;;12.90;99.90;;;;;;4894800;29;20122;-81
2023/09/01 06:58:35;;;;;;;7.32;5.63;;;13.00;99.90;;;;;;4893119;29;20037;-81
2023/09/01 07:01:11;;;;;;;8.88;4.70;;;13.00;99.90;;;;;;4890843;29;20124;-83
2023/09/01 07:03:37;;;;;;;6.20;5.10;;;13.00;99.90;;;;;;4904582;29;20037;-83
2023/09/01 07:06:03;;;;;;;4.93;4.35;;;13.10;99.90;;;;;;4892007;29;20060;-84
2023/09/01 07:08:30;;;;;;;4.85;4.20;;;13.20;99.90;;;;;;4899865;29;20102;-82
2023/09/01 07:11:03;;;;;;;6.28;3.75;;;13.20;99.90;;;;;;4895703;29;20041;-80
2023/09/01 07:13:32;;;;;;;5.07;4.03;;;13.30;99.90;;;;;;4901390;29;20048;-81
2023/09/01 07:15:58;;;;;;;4.72;3.95;;;13.30;99.90;;;;;;4901790;29;20397;-80
2023/09/01 07:18:25;;;;;;;3.72;3.40;;;13.40;99.90;;;;;;4901894;29;20063;-81
2023/09/01 07:20:56;;;;;;;3.75;3.40;;;13.40;99.90;;;;;;4888014;29;20041;-81
2023/09/01 07:23:22;;;;;;;3.50;3.20;;;13.50;99.90;;;;;;4899109;29;20035;-82
2023/09/01 07:25:48;;;;;;;5.90;3.67;;;13.50;99.90;;;;;;4901014;29;20029;-82
2023/09/01 07:28:13;;;;;;;3.20;2.95;;;13.50;99.90;;;;;;4900229;29;20033;-80
2023/09/01 07:30:40;;;;;;;3.95;3.53;;;13.60;99.90;;;;;;4896975;29;20036;-82
2023/09/01 07:33:05;;;;;;;6.32;3.53;;;13.60;99.90;;;;;;4885297;29;20024;-82
2023/09/01 07:35:31;;;;;;;4.68;3.60;;;13.70;99.90;;;;;;4899507;29;20109;-80
2023/09/01 07:37:58;;;;;;;4.03;3.40;;;13.70;99.90;;;;;;4900245;29;20045;-81
2023/09/01 07:40:24;;;;;;;6.43;3.10;;;13.80;99.90;;;;;;4897993;29;20033;-82
2023/09/01 07:42:50;;;;;;;6.20;3.40;;;13.70;99.90;;;;;;4898990;29;20404;-80
2023/09/01 07:45:16;;;;;;;5.03;3.92;;;13.80;99.90;;;;;;4893889;29;20064;-82
2023/09/01 07:47:42;;;;;;;3.47;3.17;;;13.80;99.90;;;;;;4905212;29;20036;-81
2023/09/01 07:50:09;;;;;;;2.45;2.25;;;13.80;99.90;;;;;;4898355;29;20037;-82
2023/09/01 07:52:36;;;;;;;3.17;2.88;;;13.80;99.90;;;;;;4905595;29;20394;-84
2023/09/01 07:55:05;;;;;;;2.83;2.20;;;13.80;99.90;;;;;;4885652;29;20033;-82
2023/09/01 07:57:31;;;;;;;1.70;1.60;;;13.90;99.90;;;;;;4889564;29;20473;-80
2023/09/01 07:59:57;;;;;;;1.95;1.77;;;13.90;99.90;;;;;;4888360;29;20044;-84
2023/09/01 08:02:23;;;;;;;2.00;1.90;;;13.90;99.90;;;;;;4903208;29;20522;-82
2023/09/01 08:04:49;;;;;;;2.58;1.90;;;13.90;99.90;;;;;;4888929;29;20577;-81
2023/09/01 08:07:15;;;;;;;1.80;1.70;;;14.00;99.90;;;;;;4901031;29;20041;-81
2023/09/01 08:09:41;;;;;;;2.60;2.38;;;14.10;99.90;;;;;;4892182;29;20044;-83
2023/09/01 08:12:07;;;;;;;3.53;2.75;;;14.20;99.90;;;;;;4902149;29;20060;-83
2023/09/01 08:14:51;;;;;;;2.80;2.03;;;14.20;99.90;;;;;;4896256;29;20048;-82
2023/09/01 08:17:18;;;;;;;3.50;2.25;;;14.30;99.90;;;;;;4897492;29;20045;-83
2023/09/01 08:19:47;;;;;;;2.45;2.25;;;14.30;99.90;;;;;;4896254;29;20040;-83
2023/09/01 08:22:13;;;;;;;2.58;2.00;;;14.40;99.90;;;;;;4900581;29;20115;-82
2023/09/01 08:24:39;;;;;;;2.08;1.98;;;14.50;99.90;;;;;;4901811;29;20080;-83
2023/09/01 08:27:05;;;;;;;1.95;1.77;;;14.60;99.90;;;;;;4918834;29;20041;-82
2023/09/01 08:29:31;;;;;;;1.42;1.33;;;14.60;99.90;;;;;;4892100;29;20051;-82
2023/09/01 08:31:57;;;;;;;1.52;1.23;;;14.60;99.90;;;;;;4898983;29;20040;-81
2023/09/01 08:34:23;;;;;;;1.10;1.00;;;14.70;99.90;;;;;;4904561;29;20028;-83
2023/09/01 08:36:49;;;;;;;1.40;1.30;;;14.80;99.90;;;;;;4903425;29;20060;-83
2023/09/01 08:39:15;;;;;;;1.27;1.15;;;14.80;99.90;;;;;;4876851;29;20025;-83
2023/09/01 08:42:00;;;;;;;8.03;1.60;;;14.90;99.90;;;;;;4903124;29;20509;-82
2023/09/01 08:44:27;;;;;;;0.70;0.70;;;14.90;99.90;;;;;;4904229;29;20293;-84
2023/09/01 08:46:55;;;;;;;1.33;0.85;;;15.00;99.90;;;;;;4913456;29;20517;-83
2023/09/01 08:49:25;;;;;;;1.45;1.00;;;15.00;99.90;;;;;;4886151;29;20047;-83
2023/09/01 08:51:55;;;;;;;0.90;0.88;;;15.00;99.90;;;;;;4899473;29;20040;-83
2023/09/01 08:54:21;;;;;;;0.73;0.73;;;15.10;99.90;;;;;;4895246;29;20049;-83
2023/09/01 08:56:49;;;;;;;0.82;0.82;;;15.10;99.90;;;;;;4882055;29;20085;-83
2023/09/01 08:59:40;;;;;;;1.35;0.82;;;15.20;99.90;;;;;;4908859;29;20048;-83
2023/09/01 09:02:07;;;;;;;0.73;0.70;;;15.20;99.90;;;;;;4885124;29;20033;-81
2023/09/01 09:04:34;;;;;;;1.42;0.80;;;15.30;99.90;;;;;;4897071;29;20065;-83
2023/09/01 09:07:17;;;;;;;0.98;0.90;;;15.30;99.90;;;;;;4900078;29;20102;-82
2023/09/01 09:09:53;;;;;;;0.77;0.77;;;15.40;99.90;;;;;;4886007;29;20048;-83
2023/09/01 09:12:24;;;;;;;2.00;1.00;;;15.60;99.90;;;;;;4896458;29;20055;-82
2023/09/01 09:14:55;;;;;;;0.80;0.80;;;15.70;99.90;;;;;;4900194;29;20052;-82
2023/09/01 09:17:24;;;;;;;0.80;0.80;;;15.90;99.90;;;;;;4897092;29;20059;-83
2023/09/01 09:19:51;;;;;;;0.80;0.68;;;16.00;99.90;;;;;;4885440;29;20037;-81
2023/09/01 09:22:17;;;;;;;1.15;1.00;;;16.10;99.90;;;;;;4903803;29;20453;-82
2023/09/01 09:24:43;;;;;;;1.15;1.05;;;16.10;99.90;;;;;;4892492;29;20060;-82
2023/09/01 09:27:14;;;;;;;0.82;0.82;;;16.00;99.90;;;;;;4895203;29;20052;-82
2023/09/01 09:29:41;;;;;;;1.13;0.90;;;16.10;99.90;;;;;;4895476;29;20048;-83
2023/09/01 09:32:21;;;;;;;1.00;0.90;;;16.00;99.90;;;;;;4904742;29;20048;-83
2023/09/01 09:35:11;;;;;;;1.05;1.05;;;16.00;99.90;;;;;;4892845;29;20040;-83
2023/09/01 09:37:41;;;;;;;1.13;1.02;;;16.00;99.90;;;;;;4898608;29;20041;-83
2023/09/01 09:40:16;;;;;;;1.20;1.10;;;16.10;99.90;;;;;;4909500;29;20043;-85
2023/09/01 09:42:44;;;;;;;0.75;0.75;;;16.00;99.90;;;;;;4883710;29;20047;-80
2023/09/01 09:45:34;;;;;;;1.48;1.13;;;16.00;99.90;;;;;;4899844;29;20048;-84
2023/09/01 09:48:05;;;;;;;1.27;0.82;;;16.00;99.90;;;;;;4894750;29;20123;-83
2023/09/01 09:50:33;;;;;;;1.85;1.20;;;15.90;99.90;;;;;;4894555;29;20673;-83
2023/09/01 09:53:05;;;;;;;1.38;1.08;;;16.00;99.90;;;;;;4889258;29;20052;-83
2023/09/01 09:55:33;;;;;;;1.13;1.05;;;16.00;99.90;;;;;;4892049;29;20746;-84
2023/09/01 09:58:09;;;;;;;1.10;1.00;;;15.90;99.90;;;;;;4900282;29;20044;-83
2023/09/01 10:00:40;;;;;;;2.15;0.88;;;16.00;99.90;;;;;;4899449;29;20037;-82
2023/09/01 10:03:08;;;;;;;1.13;0.85;;;16.00;99.90;;;;;;4912203;29;20037;-82
2023/09/01 10:05:35;;;;;;;2.13;1.05;;;16.00;99.90;;;;;;4898232;29;20052;-84
2023/09/01 10:08:07;;;;;;;1.10;1.00;;;16.00;99.90;;;;;;4893477;29;20044;-85
2023/09/01 10:10:34;;;;;;;1.15;0.80;;;15.90;99.90;;;;;;4908294;29;20044;-82
2023/09/01 10:13:06;;;;;;;1.08;1.08;;;15.90;99.90;;;;;;4907605;29;20060;-82
2023/09/01 10:15:36;;;;;;;1.45;1.35;;;15.80;99.90;;;;;;4904808;29;20493;-85
2023/09/01 10:18:08;;;;;;;2.10;1.50;;;15.80;99.90;;;;;;4897384;29;20051;-83
2023/09/01 10:20:42;;;;;;;1.30;1.13;;;15.90;99.90;;;;;;4892753;29;20044;-83
2023/09/01 10:23:10;;;;;;;1.45;0.98;;;15.90;99.90;;;;;;4901080;29;20094;-84
2023/09/01 10:25:37;;;;;;;1.00;0.90;;;16.00;99.90;;;;;;4892268;29;20044;-85
2023/09/01 10:28:12;;;;;;;1.50;1.40;;;15.90;99.90;;;;;;4900855;29;20048;-82
2023/09/01 10:30:40;;;;;;;1.50;1.40;;;16.00;99.90;;;;;;4892847;29;20108;-85
2023/09/01 10:33:16;;;;;;;1.75;1.38;;;16.00;99.90;;;;;;4895325;29;20057;-86
2023/09/01 10:35:47;;;;;;;1.60;1.50;;;16.10;99.90;;;;;;4901051;29;20461;-83
2023/09/01 10:38:35;;;;;;;1.25;1.15;;;16.20;99.90;;;;;;4885116;29;20033;-83
2023/09/01 10:41:02;;;;;;;1.58;1.10;;;16.20;99.90;;;;;;4897718;29;20040;-81
2023/09/01 10:43:34;;;;;;;1.52;1.40;;;16.30;99.90;;;;;;4905930;29;20029;-79
2023/09/01 10:46:12;;;;;;;1.35;1.25;;;16.30;99.90;;;;;;4904760;29;20067;-81
2023/09/01 10:48:58;;;;;;;2.33;1.35;;;16.30;99.90;;;;;;4903268;29;20040;-81
2023/09/01 10:51:27;;;;;;;;;;;16.30;99.90;;;;;;4909488;29;20124;-81
2023/09/01 10:53:57;;;;;;;2.00;1.80;;;16.40;99.90;;;;;;4903794;29;19912;-80
2023/09/01 10:56:24;;;;;;;2.08;1.95;;;16.50;99.90;;;;;;4907586;29;20033;-79
2023/09/01 10:58:52;;;;;;;2.33;2.05;;;16.50;99.90;;;;;;4904275;29;20062;-80
2023/09/01 11:01:34;;;;;;;2.40;1.83;;;16.50;99.90;;;;;;4897362;29;20029;-80
2023/09/01 11:04:22;;;;;;;3.50;1.60;;;16.60;99.90;;;;;;4915122;29;20033;-82
2023/09/01 11:07:00;;;;;;;2.88;1.52;;;16.70;99.90;;;;;;4903261;29;20055;-80
2023/09/01 11:09:35;;;;;;;1.80;1.70;;;16.70;99.90;;;;;;4896338;29;20484;-81
2023/09/01 11:12:26;;;;;;;2.30;1.83;;;16.80;99.90;;;;;;4898151;29;20515;-80
2023/09/01 11:14:55;;;;;;;1.23;1.15;;;16.90;99.90;;;;;;4904552;29;20028;-80
2023/09/01 11:17:37;;;;;;;1.38;1.27;;;16.90;99.90;;;;;;4898779;29;20463;-81
2023/09/01 11:20:05;;;;;;;1.73;1.63;;;16.90;99.90;;;;;;4894770;29;20065;-80
2023/09/01 11:22:31;;;;;;;2.55;1.27;;;16.90;99.90;;;;;;4900830;29;20053;-79
2023/09/01 11:24:56;;;;;;;2.42;1.58;;;17.00;99.90;;;;;;4901957;29;20044;-79
2023/09/01 11:27:22;;;;;;;1.40;1.30;;;17.00;99.90;;;;;;4909078;29;20068;-81
2023/09/01 11:29:52;;;;;;;2.05;1.40;;;17.00;99.90;;;;;;4901914;29;20442;-80
2023/09/01 11:32:28;;;;;;;2.40;1.25;;;17.00;99.90;;;;;;4900475;29;20024;-79
2023/09/01 11:34:54;;;;;;;1.52;1.42;;;17.10;99.90;;;;;;4902997;29;20028;-80
2023/09/01 11:37:39;;;;;;;1.55;1.45;;;17.00;99.90;;;;;;4906519;29;20054;-79
2023/09/01 11:40:09;;;;;;;1.52;1.48;;;17.10;99.90;;;;;;4898632;29;20058;-80
2023/09/01 11:42:39;;;;;;;1.60;1.50;;;17.10;99.90;;;;;;4903521;29;20048;-83
2023/09/01 11:45:08;;;;;;;1.70;1.60;;;17.00;99.90;;;;;;4916386;29;20033;-79
2023/09/01 11:47:34;;;;;;;1.40;1.10;;;17.10;99.90;;;;;;4907342;29;20055;-84
2023/09/01 11:50:00;;;;;;;1.67;1.30;;;17.20;99.90;;;;;;4903954;29;20124;-81
2023/09/01 11:52:26;;;;;;;1.63;1.13;;;17.20;99.90;;;;;;4909286;29;20111;-81
2023/09/01 11:54:52;;;;;;;1.20;1.10;;;17.30;99.90;;;;;;4903002;29;20744;-81
2023/09/01 11:57:20;;;;;;;1.40;1.30;;;17.40;99.90;;;;;;4918993;29;20037;-81
2023/09/01 11:59:48;;;;;;;2.50;1.40;;;17.50;99.90;;;;;;4893660;29;20043;-80
2023/09/01 12:02:16;;;;;;;1.58;1.33;;;17.50;99.90;;;;;;4907336;29;20020;-82
2023/09/01 12:04:51;;;;;;;5.50;4.88;;;17.40;99.90;;;;;;4905147;29;20036;-84
2023/09/01 12:07:28;;;;;;;2.33;1.48;;;17.50;99.90;;;;;;4903496;29;20398;-82
2023/09/01 12:09:55;;;;;;;1.30;1.20;;;17.50;99.90;;;;;;4892893;29;20043;-83
2023/09/01 12:12:22;;;;;;;3.53;1.52;;;17.60;99.90;;;;;;4891262;29;20037;-78
2023/09/01 12:14:48;;;;;;;1.40;1.30;;;17.60;99.90;;;;;;4897216;29;20040;-82
2023/09/01 12:17:18;;;;;;;1.30;1.15;;;17.60;99.90;;;;;;4898057;29;20028;-82
2023/09/01 12:19:50;;;;;;;1.17;1.10;;;17.70;99.90;;;;;;4892950;29;20060;-81
2023/09/01 12:22:17;;;;;;;1.30;1.20;;;17.90;99.90;;;;;;4904142;29;20132;-83
2023/09/01 12:25:09;;;;;;;1.20;1.20;;;17.90;99.90;;;;;;4911170;29;20076;-81
2023/09/01 12:27:35;;;;;;;2.05;1.73;;;17.90;99.90;;;;;;4894157;29;20498;-82
2023/09/01 12:30:01;;;;;;;1.55;1.00;;;18.00;99.90;;;;;;4908446;29;20048;-83
2023/09/01 12:32:30;;;;;;;1.85;0.80;;;18.00;99.90;;;;;;4896629;29;20759;-82
2023/09/01 12:34:56;;;;;;;1.35;1.10;;;18.10;99.90;;;;;;4896627;29;20096;-82
2023/09/01 12:37:22;;;;;;;1.10;1.08;;;18.20;99.90;;;;;;4891447;29;20060;-81
2023/09/01 12:39:48;;;;;;;2.28;1.13;;;18.20;99.90;;;;;;4898639;29;20119;-82
2023/09/01 12:42:14;;;;;;;1.08;0.93;;;18.30;99.90;;;;;;4917783;29;20024;-82
2023/09/01 12:44:39;;;;;;;1.17;1.08;;;18.30;99.90;;;;;;4889370;29;20561;-81
2023/09/01 12:47:05;;;;;;;1.30;1.20;;;18.40;99.90;;;;;;4910151;29;20042;-82
2023/09/01 12:49:31;;;;;;;1.50;1.40;;;18.40;99.90;;;;;;4898734;29;20048;-81
2023/09/01 12:51:58;;;;;;;2.78;1.10;;;18.40;99.90;;;;;;4910096;29;20108;-81
2023/09/01 12:54:23;;;;;;;3.60;1.10;;;18.50;99.90;;;;;;4906588;29;20036;-81